Time;durP1;ratioP1;P1;durP2;ratioP2;P2;SDS_P1;SDS_P2;PMS_P1;PMS_P2;Temp;Humidity;BMP_temperature;BMP_pressure;BME280_temperature;BME280_humidity;BME280_pressure;Samples;Min_cycle;Max_cycle;Signal;HPM_P1;HPM_P2
2023/10/01 00:00:21;;;;;;;15.63;8.47;;;;;;;-141.23;100.00;62281.09;5035296;28;20479;-75
2023/10/01 00:02:49;;;;;;;11.23;7.22;;;;;;;-141.23;100.00;62281.09;5017992;28;20506;-75
2023/10/01 00:05:14;;;;;;;16.45;8.00;;;;;;;-141.23;100.00;62281.09;5034368;28;20132;-75
2023/10/01 00:07:41;;;;;;;11.82;8.38;;;;;;;-141.23;100.00;62281.09;5035494;28;20136;-74
2023/10/01 00:10:12;;;;;;;17.98;7.72;;;;;;;-141.23;100.00;62281.09;5001746;28;20045;-75
2023/10/01 00:12:44;;;;;;;16.92;7.85;;;;;;;-141.23;100.00;62281.09;5035322;28;20057;-75
2023/10/01 00:15:16;;;;;;;17.48;8.00;;;;;;;-141.23;100.00;62281.09;5018041;28;20099;-75
2023/10/01 00:17:46;;;;;;;12.68;7.80;;;;;;;-141.23;100.00;62281.09;5034631;28;20073;-75
2023/10/01 00:20:27;;;;;;;15.68;7.80;;;;;;;-141.23;100.00;62281.09;5002888;28;20085;-75
2023/10/01 00:23:05;;;;;;;15.02;7.90;;;;;;;-141.23;100.00;62281.09;5036309;28;20064;-73
2023/10/01 00:25:32;;;;;;;21.38;8.13;;;;;;;-141.23;100.00;62281.09;5038919;28;20060;-75
2023/10/01 00:27:59;;;;;;;17.30;7.55;;;;;;;-141.23;100.00;62281.09;5010105;28;20064;-74
2023/10/01 00:30:26;;;;;;;13.18;7.65;;;;;;;-141.23;100.00;62281.09;5043686;28;20396;-75
2023/10/01 00:32:52;;;;;;;15.38;7.80;;;;;;;-141.23;100.00;62281.09;5043582;28;20045;-76
2023/10/01 00:35:18;;;;;;;16.63;8.48;;;;;;;-141.23;100.00;62281.09;5018843;28;20037;-75
2023/10/01 00:37:44;;;;;;;17.75;7.78;;;;;;;-141.23;100.00;62281.09;5034332;28;20104;-75
2023/10/01 00:40:10;;;;;;;13.55;7.85;;;;;;;-141.23;100.00;62281.09;5017373;28;20045;-74
2023/10/01 00:42:38;;;;;;;12.38;8.10;;;;;;;-141.23;100.00;62281.09;5033833;28;20048;-73
2023/10/01 00:45:07;;;;;;;15.98;7.82;;;;;;;-141.23;100.00;62281.09;5017356;28;20526;-74
2023/10/01 00:47:40;;;;;;;17.52;7.80;;;;;;;-141.23;100.00;62281.09;5034048;28;20047;-73
2023/10/01 00:50:11;;;;;;;15.13;7.82;;;;;;;-141.23;100.00;62281.09;5017773;28;20037;-74
2023/10/01 00:52:37;;;;;;;15.40;8.68;;;;;;;-141.23;100.00;62281.09;5033434;28;20045;-74
2023/10/01 00:55:05;;;;;;;14.95;7.32;;;;;;;-141.23;100.00;62281.09;5017047;28;20044;-73
2023/10/01 00:57:31;;;;;;;15.85;7.93;;;;;;;-141.23;100.00;62281.09;5000167;28;20033;-73
2023/10/01 00:59:57;;;;;;;21.50;8.98;;;;;;;-141.23;100.00;62281.09;5016994;28;20085;-71
2023/10/01 01:02:23;;;;;;;11.50;8.00;;;;;;;-141.23;100.00;62281.09;5033670;28;20083;-74
2023/10/01 01:05:06;;;;;;;12.13;7.38;;;;;;;-141.23;100.00;62281.09;5000574;28;20081;-75
2023/10/01 01:07:32;;;;;;;15.25;7.88;;;;;;;-141.23;100.00;62281.09;4986057;28;20076;-74
2023/10/01 01:10:01;;;;;;;17.05;7.40;;;;;;;-141.23;100.00;62281.09;5033005;28;20049;-73
2023/10/01 01:12:29;;;;;;;14.48;7.25;;;;;;;-141.23;100.00;62281.09;5000369;28;20132;-73
2023/10/01 01:14:58;;;;;;;23.25;7.82;;;;;;;-141.23;100.00;62281.09;5032286;28;20049;-74
2023/10/01 01:17:24;;;;;;;14.23;7.30;;;;;;;-141.23;100.00;62281.09;5032124;28;20091;-74
2023/10/01 01:19:52;;;;;;;14.88;8.63;;;;;;;-141.23;100.00;62281.09;5030915;28;20053;-74
2023/10/01 01:22:28;;;;;;;18.73;7.90;;;;;;;-141.23;100.00;62281.09;5030645;28;20380;-75
2023/10/01 01:25:00;;;;;;;16.90;7.75;;;;;;;-141.23;100.00;62281.09;5017043;28;20116;-73
2023/10/01 01:27:31;;;;;;;14.05;8.10;;;;;;;-141.23;100.00;62281.09;5000648;28;20037;-75
2023/10/01 01:29:58;;;;;;;13.95;7.43;;;;;;;-141.23;100.00;62281.09;5017740;28;20128;-75
2023/10/01 01:32:24;;;;;;;14.50;8.07;;;;;;;-141.23;100.00;62281.09;5033906;28;20073;-73
2023/10/01 01:34:52;;;;;;;13.02;7.50;;;;;;;-141.23;100.00;62281.09;5032832;28;20067;-75
2023/10/01 01:37:46;;;;;;;17.10;7.60;;;;;;;-141.23;100.00;62281.09;5017052;28;20099;-75
2023/10/01 01:40:27;;;;;;;11.85;7.32;;;;;;;-141.23;100.00;62281.09;5020451;28;20654;-74
2023/10/01 01:42:56;;;;;;;16.05;7.80;;;;;;;-141.23;100.00;62281.09;5033579;28;20460;-75
2023/10/01 01:45:27;;;;;;;19.45;8.43;;;;;;;-141.23;100.00;62281.09;5032570;28;20050;-75
2023/10/01 01:47:54;;;;;;;14.18;7.90;;;;;;;-141.23;100.00;62281.09;5016893;28;20072;-75
2023/10/01 01:50:26;;;;;;;13.52;7.85;;;;;;;-141.23;100.00;62281.09;5015968;28;20041;-75
2023/10/01 01:52:56;;;;;;;19.65;7.97;;;;;;;-141.23;100.00;62281.09;5032545;28;20421;-75
2023/10/01 01:55:25;;;;;;;10.43;7.35;;;;;;;-141.23;100.00;62281.09;5015989;28;20068;-74
2023/10/01 01:58:10;;;;;;;12.70;7.47;;;;;;;19.27;68.54;98919.75;5033288;28;20463;-75
2023/10/01 02:00:46;;;;;;;12.73;7.47;;;;;;;19.24;68.79;98928.25;4985738;28;20060;-74
2023/10/01 02:03:14;;;;;;;13.85;7.72;;;;;;;19.38;68.22;98913.56;5047966;28;20045;-74
2023/10/01 02:05:41;;;;;;;13.27;8.00;;;;;;;19.45;68.13;98916.97;5032828;28;20064;-74
2023/10/01 02:08:23;;;;;;;10.70;7.18;;;;;;;19.39;68.20;98909.81;5032057;28;20049;-74
2023/10/01 02:10:55;;;;;;;13.13;7.32;;;;;;;19.45;68.11;98916.97;5016801;28;20095;-74
2023/10/01 02:13:25;;;;;;;17.38;6.75;;;;;;;19.48;67.61;98911.13;5031986;28;20088;-74
2023/10/01 02:15:52;;;;;;;14.25;7.85;;;;;;;19.45;67.08;98922.34;4999234;28;20069;-75
2023/10/01 02:18:20;;;;;;;14.85;7.43;;;;;;;19.39;67.39;98890.97;4983461;28;20048;-75
2023/10/01 02:20:56;;;;;;;16.27;7.70;;;;;;;19.49;67.34;98903.88;5024250;28;20049;-75
2023/10/01 02:23:32;;;;;;;11.90;7.32;;;;;;;19.39;67.92;98899.03;5036456;28;20049;-76
2023/10/01 02:26:00;;;;;;;15.70;7.88;;;;;;;19.35;67.55;98894.34;5052095;28;20044;-76
2023/10/01 02:28:32;;;;;;;18.50;7.95;;;;;;;19.05;68.20;98904.34;5052048;28;20041;-76
2023/10/01 02:31:06;;;;;;;12.02;7.15;;;;;;;19.13;68.10;98898.59;5068770;28;20049;-76
2023/10/01 02:33:55;;;;;;;15.50;7.82;;;;;;;18.95;68.63;98894.13;5036110;28;20455;-74
2023/10/01 02:36:23;;;;;;;13.70;8.02;;;;;;;18.93;68.95;98890.03;5021349;28;20040;-75
2023/10/01 02:38:53;;;;;;;11.82;8.15;;;;;;;18.70;69.92;98882.69;5051777;28;20041;-75
2023/10/01 02:41:25;;;;;;;13.80;7.85;;;;;;;18.77;69.71;98894.19;5036432;28;20061;-77
2023/10/01 02:43:53;;;;;;;19.42;7.90;;;;;;;18.70;70.43;98896.13;5052248;28;20057;-76
2023/10/01 02:46:26;;;;;;;14.50;8.55;;;;;;;18.77;70.26;98883.44;4998039;28;20139;-75
2023/10/01 02:48:59;;;;;;;11.98;8.27;;;;;;;18.86;69.78;98892.81;4982771;28;20181;-77
2023/10/01 02:51:39;;;;;;;20.10;8.38;;;;;;;18.82;70.29;98883.53;4997959;28;20143;-75
2023/10/01 02:54:05;;;;;;;17.85;8.30;;;;;;;18.77;69.92;98890.66;5030584;28;20056;-73
2023/10/01 02:56:37;;;;;;;16.98;8.65;;;;;;;18.68;70.51;98892.03;5014365;28;20120;-72
2023/10/01 02:59:12;;;;;;;16.75;7.38;;;;;;;18.68;70.63;98882.09;4997880;28;20053;-73
2023/10/01 03:01:47;;;;;;;11.15;7.25;;;;;;;18.66;70.87;98884.19;4982225;28;20073;-74
2023/10/01 03:04:16;;;;;;;13.65;7.60;;;;;;;18.71;70.96;98881.66;4997609;28;20484;-75
2023/10/01 03:06:57;;;;;;;18.55;8.10;;;;;;;18.65;70.98;98887.91;4997667;28;20462;-73
2023/10/01 03:09:31;;;;;;;14.77;8.32;;;;;;;18.61;71.51;98875.16;5013374;28;20052;-73
2023/10/01 03:12:49;;;;;;;15.50;8.60;;;;;;;18.49;71.95;98888.56;4990385;28;20456;-74
2023/10/01 03:15:35;;;;;;;16.88;8.85;;;;;;;18.37;72.19;98875.03;4960719;28;20560;-73
2023/10/01 03:17:38;;;;;;;16.30;8.15;;;;;;;18.31;72.87;98875.13;4958243;28;20054;-74
2023/10/01 03:21:02;;;;;;;17.05;8.68;;;;;;;18.32;72.98;98880.25;4990460;28;20057;-71
2023/10/01 03:22:52;;;;;;;25.25;8.60;;;;;;;18.24;73.37;98875.19;4947757;28;20077;-73
2023/10/01 03:25:28;;;;;;;17.05;8.50;;;;;;;18.21;73.90;98870.25;4977651;28;20034;-73
2023/10/01 03:27:58;;;;;;;19.92;8.63;;;;;;;18.22;74.09;98877.28;4993870;28;20111;-74
2023/10/01 03:30:32;;;;;;;21.08;8.45;;;;;;;18.25;73.96;98874.13;4993817;28;20136;-72
2023/10/01 03:33:01;;;;;;;15.35;8.27;;;;;;;18.19;74.13;98871.50;4977302;28;20112;-74
2023/10/01 03:35:27;;;;;;;16.27;8.13;;;;;;;18.25;74.13;98870.63;4977977;28;20050;-74
2023/10/01 03:38:14;;;;;;;16.70;8.77;;;;;;;18.31;73.98;98869.75;5010190;28;20115;-75
2023/10/01 03:41:02;;;;;;;15.35;8.10;;;;;;;18.28;74.13;98856.75;5010044;28;20200;-73
2023/10/01 03:43:37;;;;;;;18.17;8.38;;;;;;;18.19;73.90;98868.81;5039471;28;20055;-75
2023/10/01 03:46:15;;;;;;;15.05;8.10;;;;;;;18.29;73.92;98869.97;5050730;28;20080;-74
2023/10/01 03:51:58;;;;;;;19.33;8.48;;;;;;;18.27;73.96;98866.66;5036811;28;20052;-74
2023/10/01 03:57:17;;;;;;;16.00;8.55;;;;;;;18.14;73.95;98857.94;5036360;28;20048;-72
2023/10/01 03:59:52;;;;;;;14.82;8.80;;;;;;;18.15;74.26;98862.28;5012657;28;20136;-71
2023/10/01 04:05:21;;;;;;;19.83;8.70;;;;;;;17.99;74.83;98855.63;5013100;28;20052;-71
2023/10/01 04:07:49;;;;;;;21.33;9.55;;;;;;;18.10;74.98;98856.75;5013111;28;20120;-73
2023/10/01 04:10:21;;;;;;;17.38;8.10;;;;;;;18.06;74.90;98847.50;5012976;28;20408;-73
2023/10/01 04:12:54;;;;;;;20.45;8.65;;;;;;;18.13;74.32;98850.91;4996601;28;20041;-73
2023/10/01 04:15:31;;;;;;;16.88;8.48;;;;;;;18.11;74.42;98855.72;4980566;28;20065;-74
2023/10/01 04:23:48;;;;;;;18.88;9.05;;;;;;;18.15;74.81;98855.03;5001392;28;20045;-74
2023/10/01 04:26:19;;;;;;;16.85;9.63;;;;;;;18.09;75.05;98836.28;4996616;28;20050;-74
2023/10/01 04:28:48;;;;;;;15.75;8.73;;;;;;;18.10;74.76;98846.00;4997050;28;20077;-74
2023/10/01 04:31:19;;;;;;;13.00;8.32;;;;;;;18.12;74.78;98846.59;5023823;28;20079;-74
2023/10/01 04:33:49;;;;;;;15.93;9.00;;;;;;;18.07;74.87;98846.44;5036375;28;20041;-74
2023/10/01 04:36:20;;;;;;;16.67;8.70;;;;;;;18.01;74.94;98840.13;5038003;28;20050;-74
2023/10/01 04:38:51;;;;;;;16.90;8.45;;;;;;;18.12;74.75;98854.66;5037120;28;20139;-74
2023/10/01 04:41:22;;;;;;;15.60;8.85;;;;;;;17.95;75.31;98843.69;5037628;28;20049;-74
2023/10/01 04:43:51;;;;;;;15.98;8.38;;;;;;;18.02;74.70;98851.69;5055004;28;20300;-74
2023/10/01 04:46:24;;;;;;;21.08;8.65;;;;;;;18.31;74.69;98845.53;5020817;28;20102;-74
2023/10/01 04:48:52;;;;;;;16.83;9.18;;;;;;;18.30;74.57;98852.78;5021018;28;20045;-74
2023/10/01 04:51:21;;;;;;;15.38;8.52;;;;;;;18.34;73.48;98847.78;5054057;28;20045;-73
2023/10/01 04:53:49;;;;;;;22.13;8.95;;;;;;;18.43;73.11;98841.06;5054254;28;20049;-74
2023/10/01 04:56:21;;;;;;;16.95;9.00;;;;;;;18.61;72.65;98842.88;5036461;28;20498;-73
2023/10/01 04:58:51;;;;;;;16.92;8.90;;;;;;;18.63;72.28;98851.53;5020657;28;20492;-74
2023/10/01 05:01:23;;;;;;;13.73;8.25;;;;;;;18.57;72.95;98847.91;5037116;28;20048;-74
2023/10/01 05:03:52;;;;;;;16.10;8.82;;;;;;;18.47;73.36;98844.13;5054717;28;20112;-74
2023/10/01 05:06:19;;;;;;;13.38;8.40;;;;;;;18.48;73.83;98848.44;5070567;28;20040;-75
2023/10/01 05:08:49;;;;;;;22.42;9.23;;;;;;;18.64;73.27;98853.16;5038165;28;20052;-75
2023/10/01 05:11:21;;;;;;;17.88;8.60;;;;;;;18.68;72.38;98843.63;5058385;28;20100;-75
2023/10/01 05:13:51;;;;;;;15.77;8.63;;;;;;;18.88;71.99;98842.25;5066970;28;20140;-74
2023/10/01 05:16:20;;;;;;;20.13;8.57;;;;;;;19.22;70.91;98854.97;5051870;28;20051;-74
2023/10/01 05:18:46;;;;;;;15.50;8.50;;;;;;;19.43;70.19;98846.38;5031297;28;20098;-74
2023/10/01 05:21:12;;;;;;;11.40;8.02;;;;;;;19.76;69.33;98843.91;5036926;28;20695;-72
2023/10/01 05:23:41;;;;;;;16.48;7.40;;;;;;;19.88;66.73;98839.31;5020563;28;20064;-75
2023/10/01 05:26:11;;;;;;;18.85;7.75;;;;;;;20.03;66.18;98845.00;5005244;28;20048;-76
2023/10/01 05:28:41;;;;;;;13.65;7.22;;;;;;;19.74;65.93;98847.88;5037520;28;20049;-74
2023/10/01 05:31:09;;;;;;;15.57;7.75;;;;;;;20.04;65.94;98851.22;5020520;28;20040;-75
2023/10/01 05:33:35;;;;;;;11.23;7.63;;;;;;;20.03;65.39;98855.00;5052629;28;20064;-75
2023/10/01 05:36:05;;;;;;;20.10;7.55;;;;;;;20.51;64.18;98847.38;5019660;28;20056;-75
2023/10/01 05:38:35;;;;;;;15.20;7.25;;;;;;;20.54;64.27;98840.69;5035946;28;20044;-75
2023/10/01 05:41:09;;;;;;;12.85;7.80;;;;;;;20.77;63.07;98854.88;5036287;28;20171;-74
2023/10/01 05:43:37;;;;;;;22.48;7.55;;;;;;;20.76;62.90;98863.22;5052351;28;20479;-75
2023/10/01 05:46:08;;;;;;;21.60;7.93;;;;;;;20.37;64.03;98848.72;5052808;28;20045;-75
2023/10/01 05:48:42;;;;;;;13.45;7.72;;;;;;;20.11;65.83;98841.97;5036323;28;20387;-74
2023/10/01 05:51:11;;;;;;;16.27;8.07;;;;;;;19.71;68.46;98841.06;5053778;28;20059;-74
2023/10/01 05:53:38;;;;;;;18.63;8.55;;;;;;;19.66;69.01;98835.59;5020079;28;20094;-75
2023/10/01 05:56:08;;;;;;;16.95;8.82;;;;;;;19.50;70.86;98836.28;5036263;28;20060;-74
2023/10/01 05:58:34;;;;;;;18.30;8.98;;;;;;;19.08;73.72;98823.13;5019926;28;20518;-76
2023/10/01 06:01:13;;;;;;;17.10;9.82;;;;;;;19.18;77.30;98832.28;5052387;28;20057;-74
2023/10/01 06:03:41;;;;;;;13.30;9.00;;;;;;;19.15;78.90;98842.66;5052672;28;20033;-75
2023/10/01 06:06:14;;;;;;;15.95;9.23;;;;;;;19.02;82.28;98834.81;5051909;28;20495;-74
2023/10/01 06:08:49;;;;;;;19.05;9.82;;;;;;;18.93;82.12;98837.00;5035996;28;20053;-75
2023/10/01 06:11:17;;;;;;;15.80;10.00;;;;;;;19.00;82.90;98836.91;5035532;28;20087;-74
2023/10/01 06:13:51;;;;;;;18.50;9.63;;;;;;;19.05;82.64;98832.47;5019283;28;20041;-75
2023/10/01 06:16:25;;;;;;;17.38;9.98;;;;;;;18.99;83.68;98828.00;5035947;28;20546;-74
2023/10/01 06:18:59;;;;;;;21.75;10.25;;;;;;;19.05;84.24;98840.53;5035736;28;20045;-75
2023/10/01 06:21:27;;;;;;;16.80;9.65;;;;;;;19.18;84.15;98839.50;5035880;28;20475;-75
2023/10/01 06:23:58;;;;;;;14.82;9.35;;;;;;;19.21;83.37;98845.25;5018883;28;20062;-78
2023/10/01 06:26:37;;;;;;;19.30;9.93;;;;;;;19.27;84.06;98844.38;5019413;28;20067;-78
2023/10/01 06:29:05;;;;;;;19.03;9.70;;;;;;;18.96;84.76;98846.50;5019586;28;20047;-81
2023/10/01 06:34:24;;;;;;;17.52;10.13;;;;;;;19.07;85.88;98867.22;5040498;28;20041;-77
2023/10/01 06:36:56;;;;;;;20.42;10.18;;;;;;;18.85;87.19;98869.63;5004110;28;20435;-72
2023/10/01 06:39:24;;;;;;;22.23;10.30;;;;;;;18.72;87.90;98866.31;5036633;28;20048;-76
2023/10/01 06:41:50;;;;;;;19.77;11.15;;;;;;;18.56;89.51;98867.75;5035467;28;20386;-77
2023/10/01 06:44:19;;;;;;;16.90;10.98;;;;;;;18.56;90.14;98875.03;5002894;28;20060;-72
2023/10/01 06:46:47;;;;;;;18.58;11.13;;;;;;;18.31;91.79;98875.91;5019434;28;20128;-76
2023/10/01 06:49:13;;;;;;;20.63;12.68;;;;;;;17.98;94.36;98885.41;5018942;28;20040;-77
2023/10/01 06:51:45;;;;;;;20.35;12.20;;;;;;;17.79;96.35;98884.56;5001852;28;20045;-77
2023/10/01 06:54:12;;;;;;;25.73;13.27;;;;;;;18.05;98.57;98886.19;5003280;28;20162;-75
2023/10/01 06:56:47;;;;;;;21.38;13.30;;;;;;;18.12;97.99;98893.13;5001840;28;20402;-76
2023/10/01 06:59:14;;;;;;;25.92;13.30;;;;;;;18.00;97.79;98889.53;5003717;28;20078;-70
2023/10/01 07:01:48;;;;;;;27.52;13.98;;;;;;;18.12;99.56;98889.59;5018400;28;20106;-70
2023/10/01 07:04:19;;;;;;;22.88;13.27;;;;;;;18.11;99.43;98894.13;5019462;28;20048;-70
2023/10/01 07:06:45;;;;;;;22.35;13.23;;;;;;;18.19;98.75;98893.00;5002141;28;20045;-70
2023/10/01 07:09:25;;;;;;;23.15;12.18;;;;;;;18.23;99.49;98896.91;5001543;28;20045;-70
2023/10/01 07:11:56;;;;;;;21.13;13.68;;;;;;;18.22;99.38;98900.66;5003300;28;20513;-70
2023/10/01 07:14:38;;;;;;;19.45;12.82;;;;;;;18.03;99.95;98901.69;5010400;28;20362;-71
2023/10/01 07:17:09;;;;;;;18.92;12.80;;;;;;;18.11;100.00;98896.03;5000646;28;20498;-71
2023/10/01 07:19:36;;;;;;;28.98;13.70;;;;;;;18.20;100.00;98900.06;5008104;28;20037;-77
2023/10/01 07:22:06;;;;;;;23.98;13.85;;;;;;;18.19;100.00;98909.13;5034298;28;20528;-70
2023/10/01 07:24:33;;;;;;;21.25;14.23;;;;;;;18.16;100.00;98909.59;5018452;28;20364;-70
2023/10/01 07:27:03;;;;;;;23.80;12.52;;;;;;;18.31;100.00;98912.75;5050681;28;20045;-72
2023/10/01 07:29:33;;;;;;;19.13;12.27;;;;;;;18.02;100.00;98906.22;5023164;28;20482;-71
2023/10/01 07:32:12;;;;;;;16.95;11.10;;;;;;;18.19;100.00;98912.66;5024888;28;20536;-71
2023/10/01 07:34:55;;;;;;;14.40;10.50;;;;;;;18.20;100.00;98910.81;5019350;28;20076;-71
2023/10/01 07:37:31;;;;;;;16.23;10.63;;;;;;;18.19;99.95;98912.66;5009528;28;20068;-72
2023/10/01 07:40:16;;;;;;;14.45;10.65;;;;;;;18.25;100.00;98909.06;5017820;28;20049;-73
2023/10/01 07:42:54;;;;;;;15.00;10.25;;;;;;;18.11;100.00;98912.16;5004026;28;20491;-71
2023/10/01 07:45:21;;;;;;;17.05;10.27;;;;;;;18.29;100.00;98917.53;5016795;28;20214;-73
2023/10/01 07:47:48;;;;;;;15.32;9.50;;;;;;;18.37;99.79;98912.69;5033773;28;20080;-73
2023/10/01 07:50:16;;;;;;;15.93;11.30;;;;;;;18.34;100.00;98915.78;5016339;28;20131;-73
2023/10/01 07:52:44;;;;;;;16.00;10.10;;;;;;;18.40;99.85;98922.19;4984443;28;20064;-74
2023/10/01 07:55:34;;;;;;;15.20;9.93;;;;;;;18.60;99.61;98921.94;5032457;28;20040;-71
2023/10/01 07:58:23;;;;;;;14.50;9.23;;;;;;;18.54;98.03;98920.16;5002940;28;20140;-71
2023/10/01 08:03:48;;;;;;;12.40;9.15;;;;;;;18.60;98.46;98933.50;4993795;28;20045;-71
2023/10/01 08:06:25;;;;;;;13.65;9.38;;;;;;;18.66;98.92;98935.28;5007887;28;20033;-71
2023/10/01 08:08:57;;;;;;;14.20;9.32;;;;;;;18.64;97.79;98940.06;5037492;28;20119;-72
2023/10/01 08:12:06;;;;;;;15.70;10.35;;;;;;;18.67;98.00;98928.84;5019604;28;20053;-72
2023/10/01 08:14:16;;;;;;;19.58;9.68;;;;;;;18.65;98.16;98933.63;5026353;28;20127;-72
2023/10/01 08:16:48;;;;;;;12.68;8.27;;;;;;;18.54;98.04;98933.59;5003375;28;20056;-72
2023/10/01 08:19:20;;;;;;;12.30;8.35;;;;;;;18.56;98.40;98940.38;5003138;28;20467;-69
2023/10/01 08:21:53;;;;;;;11.25;7.57;;;;;;;18.34;99.00;98944.56;5016686;28;20049;-69
2023/10/01 08:24:20;;;;;;;11.75;8.60;;;;;;;18.40;99.99;98938.31;5017559;28;20444;-67
2023/10/01 08:27:12;;;;;;;12.25;8.45;;;;;;;18.22;100.00;98947.16;5033144;28;20553;-66
2023/10/01 08:32:23;;;;;;;10.75;7.85;;;;;;;18.28;99.49;98943.56;5036018;28;20057;-65
2023/10/01 08:35:01;;;;;;;10.70;7.50;;;;;;;18.39;99.54;98950.09;5035963;28;20060;-66
2023/10/01 08:37:37;;;;;;;11.55;7.30;;;;;;;18.42;98.70;98942.41;5019989;28;20414;-65
2023/10/01 08:40:13;;;;;;;12.38;6.95;;;;;;;18.45;97.94;98949.22;5019710;28;20045;-69
2023/10/01 08:42:44;;;;;;;9.88;7.00;;;;;;;18.51;97.25;98952.88;5024675;28;20061;-66
2023/10/01 08:45:12;;;;;;;13.82;7.13;;;;;;;18.57;97.09;98960.88;5042886;28;20053;-67
2023/10/01 08:47:38;;;;;;;15.35;7.57;;;;;;;18.55;96.67;98954.03;5044825;28;20099;-66
2023/10/01 08:53:11;;;;;;;13.00;7.82;;;;;;;18.75;96.01;98962.69;4998725;28;20401;-71
2023/10/01 08:58:15;;;;;;;15.05;6.38;;;;;;;18.78;94.82;98971.16;5011913;28;20049;-68
2023/10/01 09:00:48;;;;;;;10.70;6.50;;;;;;;18.83;94.47;98973.16;4979225;28;20422;-68
2023/10/01 09:03:26;;;;;;;12.20;6.22;;;;;;;18.97;94.40;98983.53;4977264;28;20059;-69
2023/10/01 09:06:04;;;;;;;9.25;5.53;;;;;;;19.26;92.44;98977.31;5013034;28;20129;-68
2023/10/01 09:08:54;;;;;;;13.20;6.00;;;;;;;19.32;92.72;98976.44;4979415;28;20048;-67
2023/10/01 09:11:49;;;;;;;12.55;6.70;;;;;;;19.64;90.82;98985.88;4941021;28;20051;-67
2023/10/01 09:14:17;;;;;;;13.15;5.75;;;;;;;20.24;87.66;98985.69;4956660;28;20074;-68
2023/10/01 09:16:57;;;;;;;11.90;5.18;;;;;;;20.55;85.70;98996.94;5003918;28;20049;-68
2023/10/01 09:19:30;;;;;;;10.27;5.85;;;;;;;20.91;82.74;98990.38;4992243;28;20041;-69
2023/10/01 09:22:08;;;;;;;17.98;5.50;;;;;;;21.03;80.96;98983.09;5021952;28;20038;-68
2023/10/01 09:25:01;;;;;;;11.27;5.25;;;;;;;20.95;81.14;98988.84;5021746;28;20065;-67
2023/10/01 09:27:30;;;;;;;9.05;5.15;;;;;;;20.67;79.60;98986.09;4989438;28;20080;-68
2023/10/01 09:30:26;;;;;;;9.93;5.18;;;;;;;20.52;81.43;98989.31;5004531;28;20050;-70
2023/10/01 09:32:51;;;;;;;11.48;4.88;;;;;;;20.28;80.60;98994.97;5006389;28;20033;-68
2023/10/01 09:35:31;;;;;;;12.23;4.57;;;;;;;20.32;80.43;99006.91;5020464;28;20077;-66
2023/10/01 09:38:10;;;;;;;12.00;4.50;;;;;;;20.60;79.21;99001.63;4995320;28;20357;-66
2023/10/01 09:40:45;;;;;;;14.95;4.55;;;;;;;20.61;78.05;99008.63;4995186;28;20053;-67
2023/10/01 09:43:24;;;;;;;11.32;5.30;;;;;;;20.84;76.70;99014.81;4964132;28;20524;-67
2023/10/01 09:45:52;;;;;;;17.63;5.10;;;;;;;20.98;75.81;99012.69;4995746;28;20462;-67
2023/10/01 09:48:30;;;;;;;7.55;4.07;;;;;;;21.28;73.91;99019.50;5016129;28;20134;-67
2023/10/01 09:51:16;;;;;;;7.50;4.50;;;;;;;21.58;72.97;99017.38;5033332;28;20045;-67
2023/10/01 09:54:02;;;;;;;12.48;4.45;;;;;;;21.91;71.92;99011.19;5033222;28;20045;-67
2023/10/01 09:56:30;;;;;;;10.77;4.20;;;;;;;22.39;68.51;99014.09;5016358;28;20095;-66
2023/10/01 09:58:59;;;;;;;8.23;4.25;;;;;;;23.22;66.74;99006.53;5032117;28;20080;-66
2023/10/01 10:01:31;;;;;;;13.63;4.18;;;;;;;24.44;61.77;99017.41;5033425;28;20056;-69
2023/10/01 10:04:07;;;;;;;10.23;4.10;;;;;;;25.03;57.50;99021.53;5032098;28;20037;-66
2023/10/01 10:06:38;;;;;;;9.57;4.07;;;;;;;26.31;53.56;99023.94;5032351;28;20038;-68
2023/10/01 10:09:08;;;;;;;7.80;3.92;;;;;;;27.45;49.78;99018.41;5032350;28;20049;-67
2023/10/01 10:11:37;;;;;;;8.20;3.80;;;;;;;28.09;47.12;99018.25;5032224;28;20049;-68
2023/10/01 10:14:44;;;;;;;10.00;3.70;;;;;;;29.14;42.57;99014.41;5032189;28;20072;-68
2023/10/01 10:23:14;;;;;;;9.55;3.78;;;;;;;28.65;41.68;99021.25;5032656;28;20048;-69
2023/10/01 10:25:41;;;;;;;12.57;4.88;;;;;;;27.95;41.71;99025.44;5015463;28;20052;-68
2023/10/01 10:28:09;;;;;;;9.30;4.43;;;;;;;27.35;42.71;99017.66;5014982;28;20042;-67
2023/10/01 10:30:41;;;;;;;11.77;4.00;;;;;;;27.01;42.41;99019.41;4998449;28;20048;-67
2023/10/01 10:33:30;;;;;;;7.30;3.85;;;;;;;26.98;42.47;99019.97;5013727;28;20472;-67
2023/10/01 10:36:35;;;;;;;7.15;3.30;;;;;;;26.88;42.01;99022.75;4983744;28;20505;-68
2023/10/01 10:39:02;;;;;;;10.27;3.83;;;;;;;26.57;42.55;99018.44;5014706;28;20107;-67
2023/10/01 10:41:31;;;;;;;7.00;2.95;;;;;;;27.24;41.06;99027.78;5031394;28;20053;-67
2023/10/01 10:44:10;;;;;;;7.03;2.85;;;;;;;29.19;37.29;99028.03;5031406;28;20056;-67
2023/10/01 10:47:02;;;;;;;10.52;3.63;;;;;;;30.68;33.51;99034.16;4982814;28;20471;-67
2023/10/01 10:50:11;;;;;;;8.02;3.00;;;;;;;30.68;32.61;99019.63;5014698;28;20045;-69
2023/10/01 10:52:37;;;;;;;8.15;3.25;;;;;;;30.94;32.93;99024.34;4932523;29;20058;-70
2023/10/01 10:55:18;;;;;;;6.78;3.30;;;;;;;31.17;32.02;99034.28;4917184;29;20067;-70
2023/10/01 10:57:48;;;;;;;6.03;2.63;;;;;;;31.97;30.67;99028.13;4902244;29;20082;-67
2023/10/01 11:00:24;;;;;;;5.18;2.72;;;;;;;31.76;29.27;99030.53;4917192;29;20066;-67
2023/10/01 11:02:56;;;;;;;6.72;3.05;;;;;;;31.60;29.26;99034.75;4917630;29;20532;-68
2023/10/01 11:05:29;;;;;;;7.50;3.00;;;;;;;31.74;28.72;99032.75;4917571;29;20047;-68
2023/10/01 11:07:58;;;;;;;6.00;2.63;;;;;;;31.94;28.01;99028.75;4928977;28;20168;-68
2023/10/01 11:10:44;;;;;;;10.20;3.05;;;;;;;32.81;26.43;99034.47;4991077;28;20057;-68
2023/10/01 11:13:13;;;;;;;5.47;2.55;;;;;;;32.95;25.10;99021.47;4990764;28;20145;-70
2023/10/01 11:15:40;;;;;;;6.72;2.80;;;;;;;33.29;24.78;99027.06;4973986;28;20050;-68
2023/10/01 11:18:09;;;;;;;6.68;2.80;;;;;;;33.90;23.93;99035.09;4990279;28;20578;-70
2023/10/01 11:20:44;;;;;;;5.18;2.60;;;;;;;33.95;23.07;99021.97;4974116;28;20046;-71
2023/10/01 11:23:12;;;;;;;10.05;2.97;;;;;;;33.98;23.43;99034.31;5002109;28;20061;-69
2023/10/01 11:25:47;;;;;;;6.95;2.90;;;;;;;34.04;23.22;99021.97;4981600;28;20540;-67
2023/10/01 11:28:13;;;;;;;6.55;2.63;;;;;;;34.22;22.30;99031.84;5013710;28;20060;-68
2023/10/01 11:30:48;;;;;;;5.60;2.80;;;;;;;34.28;22.42;99030.53;5030237;28;20057;-71
2023/10/01 11:33:29;;;;;;;9.98;2.90;;;;;;;34.43;21.95;99021.75;5031887;28;20083;-66
2023/10/01 11:36:19;;;;;;;5.97;2.67;;;;;;;33.64;22.59;99023.25;5013915;28;20033;-67
2023/10/01 11:38:47;;;;;;;8.93;2.60;;;;;;;32.47;24.00;99022.19;5030021;28;20136;-69
2023/10/01 11:41:14;;;;;;;9.77;2.45;;;;;;;31.15;25.30;99011.03;5030517;28;20050;-67
2023/10/01 11:44:00;;;;;;;6.90;2.53;;;;;;;30.63;26.22;99006.84;5020537;28;20044;-67
2023/10/01 11:46:35;;;;;;;6.10;2.75;;;;;;;29.79;27.22;99009.13;5006867;28;20045;-70
2023/10/01 11:49:09;;;;;;;9.40;3.08;;;;;;;29.20;28.44;99006.97;5037227;28;20160;-67
2023/10/01 11:51:43;;;;;;;8.27;3.08;;;;;;;28.44;29.47;99006.97;5038111;28;20325;-67
2023/10/01 11:54:11;;;;;;;10.85;2.80;;;;;;;27.69;30.11;99002.16;5020429;28;20049;-67
2023/10/01 11:56:43;;;;;;;6.88;3.00;;;;;;;27.13;31.11;99003.53;5036583;28;20044;-66
2023/10/01 11:59:19;;;;;;;10.80;2.67;;;;;;;26.80;31.94;98994.13;5036661;28;20081;-67
2023/10/01 12:01:49;;;;;;;5.03;2.35;;;;;;;26.55;32.44;99012.44;5019718;28;20091;-66
2023/10/01 12:04:24;;;;;;;8.20;3.20;;;;;;;26.19;33.29;99009.81;5036684;28;20045;-66
2023/10/01 12:06:54;;;;;;;9.38;2.60;;;;;;;25.85;34.17;99005.97;5036625;28;20107;-67
2023/10/01 12:09:24;;;;;;;10.25;3.17;;;;;;;25.53;35.38;99008.13;5037663;28;20116;-66
2023/10/01 12:12:04;;;;;;;9.25;2.80;;;;;;;25.36;36.19;98998.56;5037665;28;20045;-67
2023/10/01 12:14:53;;;;;;;9.50;3.00;;;;;;;25.32;37.03;98998.25;5037536;28;20468;-69
2023/10/01 12:17:26;;;;;;;6.50;2.83;;;;;;;24.59;38.58;99006.63;5034870;28;20056;-67
2023/10/01 12:19:57;;;;;;;17.45;2.90;;;;;;;24.20;40.02;99000.69;5019966;28;20045;-67
2023/10/01 12:22:24;;;;;;;6.18;2.50;;;;;;;23.89;40.99;99004.22;5037525;28;20041;-67